Time;durP1;ratioP1;P1;durP2;ratioP2;P2;SDS_P1;SDS_P2;PMS_P1;PMS_P2;Temp;Humidity;BMP_temperature;BMP_pressure;BME280_temperature;BME280_humidity;BME280_pressure;Samples;Min_cycle;Max_cycle;Signal;HPM_P1;HPM_P2
2022/05/05 00:01:45;;;;;;;7.13;4.73;;;15.90;57.70;;;;;;4976190;28;20482;-48
2022/05/05 00:04:12;;;;;;;6.43;4.37;;;15.90;56.90;;;;;;4977675;28;20496;-48
2022/05/05 00:06:39;;;;;;;5.23;3.93;;;15.90;56.40;;;;;;4980648;28;21042;-48
2022/05/05 00:09:06;;;;;;;4.60;4.20;;;15.90;56.60;;;;;;4977698;28;20465;-48
2022/05/05 00:14:25;;;;;;;5.10;4.07;;;15.90;57.00;;;;;;4980392;28;20469;-48
2022/05/05 00:16:53;;;;;;;6.30;3.83;;;15.80;57.30;;;;;;4967638;28;20470;-48
2022/05/05 00:19:20;;;;;;;5.83;4.97;;;15.80;57.50;;;;;;4977624;28;20874;-49
2022/05/05 00:21:47;;;;;;;5.83;4.47;;;15.80;57.60;;;;;;4978885;28;20559;-48
2022/05/05 00:24:16;;;;;;;5.10;4.03;;;15.80;57.70;;;;;;4979736;28;20497;-48
2022/05/05 00:26:43;;;;;;;4.80;4.10;;;15.70;57.80;;;;;;4979123;28;20462;-48
2022/05/05 00:29:10;;;;;;;5.17;3.53;;;15.80;58.90;;;;;;4978257;28;20466;-47
2022/05/05 00:31:37;;;;;;;4.00;3.70;;;15.70;59.50;;;;;;4967071;28;20490;-48
2022/05/05 00:34:04;;;;;;;7.17;4.20;;;15.70;59.70;;;;;;4983687;28;20501;-47
2022/05/05 00:36:31;;;;;;;9.10;3.47;;;15.70;59.90;;;;;;4979260;28;20469;-49
2022/05/05 00:38:58;;;;;;;6.50;3.63;;;15.70;59.80;;;;;;4977469;28;20560;-48
2022/05/05 00:41:24;;;;;;;5.60;4.10;;;15.70;59.70;;;;;;4978346;28;20470;-48
2022/05/05 00:43:51;;;;;;;4.30;3.73;;;15.70;59.40;;;;;;4979683;28;20487;-48
2022/05/05 00:46:18;;;;;;;4.40;3.97;;;15.70;59.20;;;;;;4977184;28;20464;-48
2022/05/05 00:48:45;;;;;;;5.90;3.87;;;15.70;58.70;;;;;;4978442;28;20462;-48
2022/05/05 00:51:12;;;;;;;5.80;4.00;;;15.80;58.20;;;;;;4979013;28;20808;-48
2022/05/05 00:53:39;;;;;;;8.40;4.20;;;15.70;58.20;;;;;;4979492;28;20829;-48
2022/05/05 00:56:10;;;;;;;5.60;4.00;;;15.70;57.90;;;;;;4979700;28;21251;-48
2022/05/05 00:58:39;;;;;;;4.63;4.23;;;15.70;57.50;;;;;;4980337;28;20980;-49
2022/05/05 01:01:06;;;;;;;7.00;4.37;;;15.70;57.70;;;;;;4979985;28;20506;-47
2022/05/05 01:03:34;;;;;;;5.30;4.40;;;15.70;57.80;;;;;;4978352;28;20474;-48
2022/05/05 01:06:08;;;;;;;5.00;4.30;;;15.70;57.20;;;;;;4977528;28;20479;-48
2022/05/05 01:08:36;;;;;;;5.30;4.33;;;15.70;57.40;;;;;;4980777;28;20457;-48
2022/05/05 01:11:03;;;;;;;5.13;4.53;;;15.70;57.70;;;;;;4965436;28;20476;-47
2022/05/05 01:13:31;;;;;;;6.50;4.50;;;15.70;58.50;;;;;;4976478;28;20476;-48
2022/05/05 01:15:59;;;;;;;6.13;4.83;;;15.80;58.40;;;;;;4960510;28;20558;-48
2022/05/05 01:18:26;;;;;;;5.27;4.70;;;15.80;59.00;;;;;;4976621;28;20521;-48
2022/05/05 01:20:54;;;;;;;5.77;4.50;;;15.80;59.30;;;;;;4979769;28;20843;-47
2022/05/05 01:23:22;;;;;;;4.83;4.33;;;15.80;59.60;;;;;;4978330;28;21042;-48
2022/05/05 01:28:39;;;;;;;8.30;4.90;;;15.70;60.00;;;;;;4979967;28;20495;-48
2022/05/05 01:31:07;;;;;;;9.93;5.17;;;15.70;59.80;;;;;;4979491;28;20481;-47
2022/05/05 01:33:35;;;;;;;4.80;4.30;;;15.60;59.90;;;;;;4972407;28;20544;-47
2022/05/05 01:36:03;;;;;;;6.57;4.40;;;15.60;60.40;;;;;;4979551;28;20923;-48
2022/05/05 01:38:40;;;;;;;8.33;4.50;;;15.60;61.10;;;;;;4965103;28;20469;-48
2022/05/05 01:41:12;;;;;;;6.17;4.97;;;15.60;61.10;;;;;;4984286;28;20562;-48
2022/05/05 01:43:40;;;;;;;8.23;4.27;;;15.60;61.20;;;;;;4976663;28;20458;-48
2022/05/05 01:46:07;;;;;;;4.93;4.27;;;15.60;61.40;;;;;;4980151;28;20469;-48
2022/05/05 01:48:35;;;;;;;4.70;3.80;;;15.60;61.90;;;;;;4977537;28;20963;-48
2022/05/05 01:51:03;;;;;;;8.73;4.93;;;15.60;61.60;;;;;;4978132;28;20485;-48
2022/05/05 01:53:36;;;;;;;5.43;4.60;;;15.60;61.40;;;;;;4960335;28;20475;-49
2022/05/05 01:56:10;;;;;;;5.53;4.57;;;15.60;61.80;;;;;;4981581;28;21051;-48
2022/05/05 01:58:39;;;;;;;5.53;4.60;;;15.60;61.40;;;;;;4961692;28;20478;-48
2022/05/05 02:01:06;;;;;;;8.10;5.20;;;15.50;61.20;;;;;;4964449;28;20479;-47
2022/05/05 02:03:33;;;;;;;6.50;5.07;;;15.60;60.80;;;;;;4967725;28;20817;-47
2022/05/05 02:06:00;;;;;;;5.77;5.17;;;15.60;60.60;;;;;;4986972;28;20966;-47
2022/05/05 02:08:28;;;;;;;7.37;5.33;;;15.50;60.60;;;;;;4979879;28;20466;-48
2022/05/05 02:10:55;;;;;;;5.83;5.17;;;15.50;60.60;;;;;;4984276;28;20466;-45
2022/05/05 02:13:22;;;;;;;6.27;5.67;;;15.50;60.80;;;;;;4980091;28;20478;-45
2022/05/05 02:15:49;;;;;;;8.47;5.23;;;15.60;60.30;;;;;;4985278;28;20953;-45
2022/05/05 02:18:16;;;;;;;7.83;5.10;;;15.60;60.30;;;;;;4986655;28;20468;-46
2022/05/05 02:20:42;;;;;;;6.53;5.70;;;15.60;60.40;;;;;;4983714;28;20518;-45
2022/05/05 02:23:09;;;;;;;7.50;5.57;;;15.60;61.10;;;;;;4982651;28;20790;-46
2022/05/05 02:25:37;;;;;;;7.77;5.17;;;15.60;61.60;;;;;;4984387;28;20570;-46
2022/05/05 02:28:04;;;;;;;8.00;6.07;;;15.60;62.30;;;;;;4965847;28;20460;-45
2022/05/05 02:30:31;;;;;;;7.67;6.90;;;15.60;62.80;;;;;;4984958;28;20857;-45
2022/05/05 02:32:58;;;;;;;9.40;6.50;;;15.60;63.00;;;;;;4981920;28;20461;-45
2022/05/05 02:35:24;;;;;;;9.97;7.00;;;15.60;63.60;;;;;;4981678;28;20504;-45
2022/05/05 02:40:37;;;;;;;8.27;7.37;;;15.50;64.40;;;;;;4982395;28;20469;-45
2022/05/05 02:43:06;;;;;;;7.03;6.33;;;15.50;65.00;;;;;;4984910;28;20560;-45
2022/05/05 02:45:33;;;;;;;9.30;7.80;;;15.50;65.50;;;;;;4984546;28;20503;-46
2022/05/05 02:48:00;;;;;;;7.53;6.77;;;15.40;65.70;;;;;;4982240;28;20483;-46
2022/05/05 02:50:27;;;;;;;7.97;7.10;;;15.40;66.00;;;;;;4977596;28;20469;-45
2022/05/05 02:52:55;;;;;;;8.00;6.60;;;15.40;66.50;;;;;;4988537;28;20468;-44
2022/05/05 02:55:22;;;;;;;14.03;7.70;;;15.40;67.40;;;;;;4981009;28;20474;-45
2022/05/05 02:57:50;;;;;;;9.60;7.53;;;15.40;67.60;;;;;;4982099;28;20947;-45
2022/05/05 03:00:17;;;;;;;10.53;7.70;;;15.40;67.50;;;;;;4983067;28;20457;-45
2022/05/05 03:02:45;;;;;;;12.33;8.37;;;15.40;67.50;;;;;;4979292;28;20477;-45
2022/05/05 03:05:16;;;;;;;11.07;7.83;;;15.40;67.50;;;;;;4984910;28;20864;-45
2022/05/05 03:07:43;;;;;;;12.50;8.90;;;15.40;67.80;;;;;;4980181;28;20553;-45
2022/05/05 03:10:11;;;;;;;13.20;8.43;;;15.30;68.40;;;;;;4979915;28;20469;-45
2022/05/05 03:12:38;;;;;;;13.77;9.37;;;15.30;68.90;;;;;;4984760;28;20936;-46
2022/05/05 03:15:06;;;;;;;16.97;8.87;;;15.30;69.80;;;;;;4968269;28;20471;-45
2022/05/05 03:17:33;;;;;;;10.47;7.90;;;15.30;70.00;;;;;;4979352;28;21126;-45
2022/05/05 03:20:00;;;;;;;9.60;8.07;;;15.30;70.20;;;;;;4981186;28;20862;-45
2022/05/05 03:22:27;;;;;;;12.73;8.60;;;15.30;70.40;;;;;;4982805;28;20475;-45
2022/05/05 03:24:54;;;;;;;10.87;9.43;;;15.30;70.60;;;;;;4982412;28;20489;-45
2022/05/05 03:27:20;;;;;;;13.87;10.87;;;15.30;70.90;;;;;;4966972;28;20469;-46
2022/05/05 03:29:47;;;;;;;10.87;9.50;;;15.30;71.00;;;;;;4981484;28;20464;-45
2022/05/05 03:32:15;;;;;;;10.60;9.33;;;15.20;71.00;;;;;;4983869;28;20857;-46
2022/05/05 03:34:42;;;;;;;12.17;9.80;;;15.20;71.20;;;;;;4979152;28;20532;-45
2022/05/05 03:37:09;;;;;;;12.70;10.77;;;15.20;71.30;;;;;;4983722;28;21045;-45
2022/05/05 03:39:36;;;;;;;14.73;10.70;;;15.20;71.30;;;;;;4962258;28;20479;-45
2022/05/05 03:42:04;;;;;;;12.80;11.23;;;15.10;71.50;;;;;;4983778;28;20471;-45
2022/05/05 03:44:30;;;;;;;17.77;11.17;;;15.10;72.00;;;;;;4985083;28;20497;-45
2022/05/05 03:46:57;;;;;;;13.10;11.27;;;15.10;72.00;;;;;;4982723;28;20828;-45
2022/05/05 03:49:24;;;;;;;15.07;11.83;;;15.10;72.00;;;;;;4981126;28;20870;-45
2022/05/05 03:51:51;;;;;;;13.97;9.90;;;15.00;72.10;;;;;;4985337;28;20488;-45
2022/05/05 03:54:17;;;;;;;14.10;11.00;;;15.00;72.50;;;;;;4964300;28;20461;-45
2022/05/05 03:56:44;;;;;;;16.93;11.20;;;15.00;73.00;;;;;;4960647;28;20465;-45
2022/05/05 03:59:11;;;;;;;12.83;11.50;;;15.00;73.30;;;;;;4981726;28;20464;-45
2022/05/05 04:01:37;;;;;;;18.83;11.70;;;15.00;73.40;;;;;;4981409;28;20476;-45
2022/05/05 04:04:04;;;;;;;14.97;12.50;;;15.00;73.50;;;;;;4982810;28;20512;-45
2022/05/05 04:06:32;;;;;;;16.33;12.70;;;15.00;73.30;;;;;;4983189;28;20551;-46
2022/05/05 04:09:00;;;;;;;16.40;12.00;;;15.00;73.50;;;;;;4983980;28;20461;-46
2022/05/05 04:11:26;;;;;;;18.90;13.93;;;15.00;73.60;;;;;;4978740;28;20467;-45
2022/05/05 04:13:53;;;;;;;19.77;12.70;;;15.10;73.40;;;;;;4965986;28;20984;-46
2022/05/05 04:16:20;;;;;;;15.77;14.00;;;15.10;73.30;;;;;;4982984;28;20460;-46
2022/05/05 04:18:47;;;;;;;16.57;13.17;;;15.00;73.20;;;;;;4983227;28;20463;-46
2022/05/05 04:21:14;;;;;;;23.13;15.20;;;15.00;73.30;;;;;;4982402;28;20469;-46
2022/05/05 04:23:40;;;;;;;17.43;13.83;;;14.90;73.10;;;;;;4987028;28;20467;-46
2022/05/05 04:26:13;;;;;;;19.10;14.73;;;14.90;73.00;;;;;;4982096;28;20501;-46
2022/05/05 04:28:42;;;;;;;20.07;13.90;;;14.90;72.90;;;;;;4980186;28;20829;-46
2022/05/05 04:31:20;;;;;;;20.17;14.57;;;15.00;73.30;;;;;;4980902;28;20517;-46
2022/05/05 04:33:47;;;;;;;17.07;14.40;;;15.00;73.20;;;;;;4980763;28;20555;-46
2022/05/05 04:36:14;;;;;;;17.03;15.20;;;15.00;73.20;;;;;;4982115;28;20469;-46
2022/05/05 04:38:41;;;;;;;19.73;13.93;;;15.00;73.30;;;;;;4979150;28;20878;-46
2022/05/05 04:41:08;;;;;;;18.30;13.40;;;15.00;73.50;;;;;;4982506;28;20897;-46
2022/05/05 04:43:35;;;;;;;15.07;13.47;;;15.00;73.80;;;;;;4985353;28;20563;-46
2022/05/05 04:46:02;;;;;;;18.00;14.13;;;14.90;73.90;;;;;;4980752;28;20528;-45
2022/05/05 04:48:29;;;;;;;21.37;13.47;;;14.90;74.10;;;;;;4981413;28;20870;-45
2022/05/05 04:50:55;;;;;;;18.83;14.50;;;14.90;74.20;;;;;;4980737;28;20469;-45
2022/05/05 04:53:22;;;;;;;19.47;13.80;;;14.90;73.90;;;;;;4979967;28;20469;-45
2022/05/05 04:55:49;;;;;;;17.70;13.93;;;14.90;73.80;;;;;;4977878;28;20870;-45
2022/05/05 04:58:22;;;;;;;18.17;15.27;;;14.90;73.60;;;;;;4983497;28;20479;-45
2022/05/05 05:00:48;;;;;;;19.07;14.97;;;14.90;73.50;;;;;;4980596;28;20468;-46
2022/05/05 05:03:36;;;;;;;21.10;14.70;;;14.90;73.40;;;;;;4980644;28;21100;-45
2022/05/05 05:06:04;;;;;;;17.80;14.10;;;14.90;73.20;;;;;;4981744;28;20493;-45
2022/05/05 05:08:31;;;;;;;18.37;13.40;;;14.90;73.00;;;;;;4978328;28;20467;-45
2022/05/05 05:10:58;;;;;;;19.20;14.00;;;14.90;73.00;;;;;;4978688;28;20469;-45
2022/05/05 05:13:25;;;;;;;23.00;13.40;;;14.90;73.00;;;;;;4975730;28;20468;-45
2022/05/05 05:15:52;;;;;;;19.20;13.30;;;14.80;73.00;;;;;;4982680;28;21013;-45
2022/05/05 05:18:19;;;;;;;16.53;14.33;;;14.80;73.00;;;;;;4979291;28;20670;-46
2022/05/05 05:20:46;;;;;;;16.10;13.37;;;14.90;73.00;;;;;;4968068;28;20504;-46
2022/05/05 05:23:12;;;;;;;17.37;13.23;;;14.80;72.90;;;;;;4963353;28;20495;-45
2022/05/05 05:25:39;;;;;;;15.47;13.77;;;14.80;73.00;;;;;;4979521;28;20497;-45
2022/05/05 05:28:06;;;;;;;19.50;13.27;;;14.80;73.00;;;;;;4964211;28;20464;-45
2022/05/05 05:30:40;;;;;;;14.67;13.07;;;14.90;72.90;;;;;;4976266;28;20477;-47
2022/05/05 05:33:07;;;;;;;16.10;13.70;;;14.90;72.70;;;;;;4962666;28;20598;-47
2022/05/05 05:35:35;;;;;;;16.80;13.07;;;14.90;73.00;;;;;;4959950;28;22333;-48
2022/05/05 05:38:02;;;;;;;17.00;14.27;;;14.90;73.00;;;;;;4972715;28;20497;-48
2022/05/05 05:40:29;;;;;;;18.30;13.83;;;14.90;73.00;;;;;;4977340;28;20468;-48
2022/05/05 05:42:55;;;;;;;19.73;14.97;;;14.90;73.10;;;;;;4966436;28;20469;-48
2022/05/05 05:45:23;;;;;;;19.37;14.80;;;14.80;73.40;;;;;;4975232;28;20886;-48
2022/05/05 05:47:50;;;;;;;16.53;13.87;;;14.80;73.50;;;;;;4977120;28;20491;-48
2022/05/05 05:50:18;;;;;;;18.13;14.43;;;14.80;73.50;;;;;;4977923;28;20475;-48
2022/05/05 05:52:45;;;;;;;22.00;15.50;;;14.90;73.60;;;;;;4980802;28;20844;-48
2022/05/05 05:55:12;;;;;;;19.73;14.40;;;14.90;72.90;;;;;;4960371;28;20469;-48
2022/05/05 05:57:39;;;;;;;16.07;14.00;;;14.90;73.00;;;;;;4979594;28;20467;-48
2022/05/05 06:00:07;;;;;;;15.83;14.13;;;14.80;73.20;;;;;;4975036;28;20468;-48
2022/05/05 06:05:19;;;;;;;17.57;14.43;;;14.80;73.10;;;;;;4978467;28;20510;-47
2022/05/05 06:07:46;;;;;;;16.70;14.07;;;14.80;72.80;;;;;;4978575;28;20461;-47
2022/05/05 06:10:13;;;;;;;18.73;14.30;;;14.80;72.50;;;;;;4979567;28;20520;-47
2022/05/05 06:12:39;;;;;;;19.30;14.50;;;14.80;72.20;;;;;;4980926;28;20474;-47
2022/05/05 06:15:07;;;;;;;16.87;12.77;;;14.80;72.10;;;;;;4984271;28;20555;-48
2022/05/05 06:17:34;;;;;;;16.63;12.93;;;14.80;72.10;;;;;;4963281;28;20962;-48
2022/05/05 06:20:02;;;;;;;15.93;13.30;;;14.80;72.50;;;;;;4979681;28;20445;-48
2022/05/05 06:22:29;;;;;;;16.37;13.80;;;14.80;72.80;;;;;;4980046;28;20499;-47
2022/05/05 06:24:55;;;;;;;19.53;14.17;;;14.90;73.00;;;;;;4976496;28;20460;-47
2022/05/05 06:27:23;;;;;;;15.83;13.93;;;15.00;73.00;;;;;;4977890;28;20456;-47
2022/05/05 06:29:50;;;;;;;17.03;14.43;;;15.00;73.10;;;;;;4980872;28;20464;-47
2022/05/05 06:32:19;;;;;;;16.60;13.43;;;14.90;73.60;;;;;;4980226;28;21150;-46
2022/05/05 06:34:46;;;;;;;17.37;14.30;;;14.90;73.60;;;;;;4978581;28;20468;-47
2022/05/05 06:37:13;;;;;;;18.30;14.00;;;14.90;73.70;;;;;;4982424;28;20827;-46
2022/05/05 06:39:40;;;;;;;16.17;14.23;;;14.90;74.30;;;;;;4984713;28;20465;-46
2022/05/05 06:42:07;;;;;;;20.63;16.17;;;14.90;75.40;;;;;;4977636;28;20488;-46
2022/05/05 06:44:35;;;;;;;20.67;16.77;;;14.90;76.00;;;;;;4982856;28;20469;-46
2022/05/05 06:47:03;;;;;;;22.70;17.20;;;14.90;76.20;;;;;;4986188;28;20496;-47
2022/05/05 06:49:31;;;;;;;23.10;15.27;;;14.80;76.20;;;;;;4984025;28;20508;-46
2022/05/05 06:51:57;;;;;;;20.13;17.00;;;14.80;76.70;;;;;;4979638;28;20811;-46
2022/05/05 06:54:29;;;;;;;19.70;15.23;;;14.80;76.90;;;;;;4979980;28;20473;-46
2022/05/05 06:56:56;;;;;;;21.33;17.40;;;14.80;77.30;;;;;;4964626;28;20496;-46
2022/05/05 06:59:24;;;;;;;17.80;15.93;;;14.80;77.50;;;;;;4983771;28;20472;-46
2022/05/05 07:01:56;;;;;;;20.67;15.97;;;14.70;77.70;;;;;;4976095;28;20914;-46
2022/05/05 07:07:21;;;;;;;20.63;16.70;;;14.80;78.30;;;;;;4982479;28;20453;-46
2022/05/05 07:12:34;;;;;;;22.77;17.47;;;14.70;78.50;;;;;;4979539;28;20471;-47
2022/05/05 07:15:01;;;;;;;20.03;15.90;;;14.70;78.80;;;;;;4983922;28;20535;-47
2022/05/05 07:17:28;;;;;;;20.30;16.40;;;14.80;78.90;;;;;;4986293;28;20475;-46
2022/05/05 07:19:55;;;;;;;19.90;15.30;;;14.80;78.80;;;;;;4986321;28;20457;-46
2022/05/05 07:22:21;;;;;;;24.10;17.37;;;14.80;78.60;;;;;;4982256;28;20459;-46
2022/05/05 07:24:48;;;;;;;21.00;16.27;;;14.70;78.50;;;;;;4982867;28;20974;-46
2022/05/05 07:27:15;;;;;;;24.43;16.40;;;14.70;78.50;;;;;;4981395;28;20555;-46
2022/05/05 07:29:42;;;;;;;18.53;15.27;;;14.70;78.60;;;;;;4984148;28;20463;-46
2022/05/05 07:32:10;;;;;;;19.53;16.47;;;14.70;78.70;;;;;;4968178;28;20491;-46
2022/05/05 07:34:42;;;;;;;19.80;15.40;;;14.70;78.90;;;;;;4981647;28;20539;-46
2022/05/05 07:37:09;;;;;;;18.37;16.37;;;14.70;79.30;;;;;;4986263;28;20464;-46
2022/05/05 07:39:36;;;;;;;23.10;16.87;;;14.80;79.10;;;;;;4983418;28;20466;-46
2022/05/05 07:42:04;;;;;;;20.33;15.60;;;14.70;79.10;;;;;;4983882;28;20981;-46
2022/05/05 07:44:30;;;;;;;23.20;17.13;;;14.80;78.90;;;;;;4988008;28;20469;-46
2022/05/05 07:46:57;;;;;;;24.60;17.83;;;14.80;78.90;;;;;;4986388;28;20612;-47
2022/05/05 07:49:24;;;;;;;18.60;15.40;;;14.70;79.00;;;;;;4983420;28;21178;-47
2022/05/05 07:51:52;;;;;;;20.07;16.30;;;14.70;79.40;;;;;;4982376;28;20495;-47
2022/05/05 07:54:34;;;;;;;21.73;16.53;;;14.70;79.60;;;;;;4987689;28;20807;-47
2022/05/05 07:57:02;;;;;;;21.43;16.13;;;14.70;79.60;;;;;;4982650;28;20471;-47
2022/05/05 07:59:29;;;;;;;18.67;15.60;;;14.80;79.40;;;;;;4984005;28;20464;-47
2022/05/05 08:01:57;;;;;;;21.47;15.27;;;14.80;79.30;;;;;;4984557;28;20491;-47
2022/05/05 08:04:24;;;;;;;20.27;16.10;;;14.80;79.30;;;;;;4981543;28;20902;-47
2022/05/05 08:06:51;;;;;;;18.73;13.97;;;14.90;79.30;;;;;;4979377;28;20495;-47
2022/05/05 08:09:18;;;;;;;18.73;15.23;;;14.90;79.40;;;;;;4967717;28;20469;-47
2022/05/05 08:11:45;;;;;;;20.93;15.23;;;14.90;79.40;;;;;;4985822;28;20460;-47
2022/05/05 08:14:12;;;;;;;17.93;14.83;;;14.90;79.30;;;;;;4983451;28;20496;-47
2022/05/05 08:16:39;;;;;;;16.77;14.07;;;15.00;79.00;;;;;;4985731;28;20477;-47
2022/05/05 08:19:06;;;;;;;17.60;14.83;;;15.00;78.60;;;;;;4983217;28;20813;-47
2022/05/05 08:21:34;;;;;;;20.00;14.33;;;15.00;78.60;;;;;;4979647;28;20476;-46
2022/05/05 08:29:37;;;;;;;21.60;14.53;;;15.30;78.20;;;;;;4984011;28;20488;-47
2022/05/05 08:32:04;;;;;;;16.83;14.33;;;15.30;78.00;;;;;;4984040;28;20579;-47
2022/05/05 08:34:31;;;;;;;19.47;15.00;;;15.40;77.30;;;;;;4969733;28;20559;-47
2022/05/05 08:36:58;;;;;;;19.20;14.23;;;15.50;76.60;;;;;;4978296;28;20845;-48
2022/05/05 08:39:25;;;;;;;18.37;13.80;;;15.60;75.70;;;;;;4979863;28;20472;-48
2022/05/05 08:41:55;;;;;;;15.30;13.70;;;15.70;75.30;;;;;;4981820;28;20482;-48
2022/05/05 08:44:22;;;;;;;18.60;14.27;;;15.80;72.70;;;;;;4977524;28;20557;-48
2022/05/05 08:46:53;;;;;;;18.83;13.17;;;15.90;74.40;;;;;;4984538;28;20497;-48
2022/05/05 08:49:23;;;;;;;16.43;13.63;;;15.90;73.40;;;;;;4979544;28;20489;-48
2022/05/05 08:51:53;;;;;;;16.90;13.63;;;15.90;73.60;;;;;;4982366;28;20473;-48
2022/05/05 08:54:25;;;;;;;16.50;13.57;;;16.00;74.30;;;;;;4977923;28;20464;-47
2022/05/05 08:56:55;;;;;;;18.53;13.17;;;16.00;73.20;;;;;;4974809;28;20467;-48
2022/05/05 08:59:23;;;;;;;16.13;13.40;;;16.00;72.60;;;;;;4974089;28;20584;-48
2022/05/05 09:01:53;;;;;;;18.23;13.27;;;16.10;72.10;;;;;;4977649;28;20473;-47
2022/05/05 09:04:23;;;;;;;14.37;12.57;;;16.10;72.10;;;;;;4977721;28;20448;-48
2022/05/05 09:06:52;;;;;;;19.87;13.30;;;16.20;71.70;;;;;;4947303;28;20501;-47
2022/05/05 09:09:23;;;;;;;14.93;13.23;;;16.10;71.40;;;;;;4963296;28;21136;-47
2022/05/05 09:12:12;;;;;;;16.43;12.17;;;16.20;70.70;;;;;;4978523;28;20494;-47
2022/05/05 09:14:50;;;;;;;15.63;11.63;;;16.20;69.60;;;;;;4975292;28;20473;-48
2022/05/05 09:17:18;;;;;;;17.07;12.50;;;16.20;70.20;;;;;;4981505;28;20484;-47
2022/05/05 09:19:48;;;;;;;14.20;12.67;;;16.20;70.30;;;;;;4970599;28;20960;-48
2022/05/05 09:22:18;;;;;;;16.00;12.63;;;16.30;70.70;;;;;;4979682;28;20839;-48
2022/05/05 09:24:49;;;;;;;17.07;12.73;;;16.30;70.00;;;;;;4974881;28;20504;-48
2022/05/05 09:27:16;;;;;;;17.23;11.83;;;16.30;69.90;;;;;;4980521;28;20527;-47
2022/05/05 09:30:01;;;;;;;16.73;11.90;;;16.30;70.20;;;;;;4984622;28;21009;-47
2022/05/05 09:32:44;;;;;;;13.73;10.93;;;16.40;71.00;;;;;;4975744;28;20480;-48
2022/05/05 09:35:15;;;;;;;14.97;11.93;;;16.40;70.30;;;;;;4979113;28;21067;-47
2022/05/05 09:37:45;;;;;;;11.93;10.10;;;16.50;69.70;;;;;;4978005;28;20551;-47
2022/05/05 09:40:17;;;;;;;13.40;10.50;;;16.50;69.80;;;;;;4980678;28;20986;-48
2022/05/05 09:42:50;;;;;;;12.87;10.43;;;16.50;70.30;;;;;;4969947;28;20542;-47
2022/05/05 09:45:21;;;;;;;12.80;10.03;;;16.50;68.20;;;;;;4978671;28;20836;-47
2022/05/05 09:47:53;;;;;;;11.67;10.47;;;16.50;67.50;;;;;;4977836;28;20593;-47
2022/05/05 09:50:22;;;;;;;11.47;10.20;;;16.50;67.70;;;;;;4972069;28;20501;-48
2022/05/05 09:58:35;;;;;;;11.53;10.13;;;16.60;67.50;;;;;;4977786;28;20466;-48
2022/05/05 10:01:09;;;;;;;12.77;9.30;;;16.60;64.50;;;;;;4954628;28;20556;-48
2022/05/05 10:04:02;;;;;;;11.70;8.73;;;16.70;66.90;;;;;;4977435;28;21000;-48
2022/05/05 10:06:36;;;;;;;9.43;8.30;;;16.70;65.50;;;;;;4970992;28;20496;-48
2022/05/05 10:09:07;;;;;;;11.83;7.80;;;16.70;65.50;;;;;;4972388;28;20846;-48
2022/05/05 10:11:34;;;;;;;12.00;9.07;;;16.60;65.10;;;;;;4977032;28;20461;-48
2022/05/05 10:14:05;;;;;;;9.30;7.50;;;16.60;65.60;;;;;;4976850;28;20469;-47
2022/05/05 10:16:34;;;;;;;15.13;8.47;;;16.70;64.90;;;;;;4978507;28;20516;-48
2022/05/05 10:19:03;;;;;;;9.53;7.00;;;16.70;64.70;;;;;;4983802;28;20452;-48
2022/05/05 10:21:39;;;;;;;13.57;7.70;;;16.70;64.70;;;;;;4977784;28;21023;-47
2022/05/05 10:24:06;;;;;;;9.87;7.43;;;16.70;63.80;;;;;;4979972;28;20462;-48
2022/05/05 10:26:33;;;;;;;9.33;7.10;;;16.70;63.90;;;;;;4982334;28;20522;-47
2022/05/05 10:29:01;;;;;;;13.47;7.10;;;16.70;64.40;;;;;;4983476;28;20561;-48
2022/05/05 10:31:37;;;;;;;8.27;6.60;;;16.70;64.40;;;;;;4980498;28;20504;-48
2022/05/05 10:34:15;;;;;;;14.03;7.30;;;16.80;62.40;;;;;;4961346;28;20465;-47
2022/05/05 10:36:59;;;;;;;10.80;7.23;;;16.80;62.40;;;;;;4980574;28;20499;-48
2022/05/05 10:39:48;;;;;;;10.73;7.13;;;16.80;61.50;;;;;;4981086;28;21391;-48
2022/05/05 10:42:43;;;;;;;13.70;7.17;;;16.80;60.30;;;;;;4980175;28;20465;-47
2022/05/05 10:45:16;;;;;;;8.00;7.20;;;16.90;60.30;;;;;;4968255;28;20561;-48
2022/05/05 10:47:55;;;;;;;7.17;6.47;;;17.00;61.20;;;;;;4975418;28;20496;-47
2022/05/05 10:50:46;;;;;;;10.13;8.07;;;17.10;61.50;;;;;;4972328;28;20481;-48
2022/05/05 10:53:25;;;;;;;14.03;6.80;;;17.10;60.40;;;;;;4979837;28;20821;-47
2022/05/05 10:55:52;;;;;;;11.53;6.90;;;17.10;60.70;;;;;;4981409;28;20971;-47
2022/05/05 10:58:58;;;;;;;12.53;7.20;;;17.20;60.20;;;;;;4979595;28;20512;-47
2022/05/05 11:01:26;;;;;;;8.17;7.03;;;17.20;60.00;;;;;;4965957;28;20481;-47
2022/05/05 11:04:11;;;;;;;13.27;6.00;;;17.30;59.00;;;;;;4979041;28;20479;-47
2022/05/05 11:06:38;;;;;;;13.73;6.70;;;17.40;58.80;;;;;;4979385;28;20527;-47
2022/05/05 11:09:05;;;;;;;8.87;5.43;;;17.60;58.90;;;;;;4964310;28;20469;-47
2022/05/05 11:11:41;;;;;;;8.67;5.47;;;17.80;58.80;;;;;;4984694;28;20459;-47
2022/05/05 11:23:08;;;;;;;7.80;5.73;;;18.20;56.50;;;;;;4979462;28;20874;-47
2022/05/05 11:25:41;;;;;;;10.80;7.03;;;18.20;56.30;;;;;;4981207;28;20458;-47
2022/05/05 11:28:11;;;;;;;7.70;6.50;;;18.30;56.20;;;;;;4981054;28;20524;-46
2022/05/05 11:30:42;;;;;;;9.07;6.90;;;18.40;55.40;;;;;;4981660;28;20509;-47
2022/05/05 11:33:09;;;;;;;10.10;7.23;;;18.50;56.70;;;;;;4983762;28;20911;-46
2022/05/05 11:36:02;;;;;;;7.67;6.23;;;18.50;56.20;;;;;;4982747;28;20504;-46
2022/05/05 11:38:29;;;;;;;8.17;6.07;;;18.60;56.00;;;;;;4978583;28;20472;-47
2022/05/05 11:41:04;;;;;;;8.60;6.17;;;18.70;54.70;;;;;;4981969;28;20481;-46
2022/05/05 11:46:18;;;;;;;12.00;6.70;;;18.90;54.70;;;;;;4976998;28;20610;-47
2022/05/05 11:48:53;;;;;;;8.20;6.20;;;19.00;55.70;;;;;;4978994;28;20491;-47
2022/05/05 11:51:25;;;;;;;10.77;7.03;;;19.10;54.40;;;;;;4979821;28;20488;-46
2022/05/05 11:54:25;;;;;;;10.30;7.70;;;19.20;53.30;;;;;;4982201;28;20987;-46
2022/05/05 11:56:53;;;;;;;11.10;7.27;;;19.20;53.00;;;;;;4976923;28;20468;-47
2022/05/05 12:02:18;;;;;;;10.00;6.97;;;19.20;53.30;;;;;;4980339;28;20470;-46
2022/05/05 12:04:54;;;;;;;7.57;5.90;;;19.20;54.20;;;;;;4962198;28;20834;-47
2022/05/05 12:07:23;;;;;;;7.93;5.80;;;19.20;55.00;;;;;;4980280;28;20889;-47
2022/05/05 12:09:54;;;;;;;11.23;7.03;;;19.20;55.00;;;;;;4984517;28;20472;-47
2022/05/05 12:12:26;;;;;;;9.43;6.63;;;19.20;54.70;;;;;;4980791;28;20461;-43
2022/05/05 12:14:56;;;;;;;10.43;6.53;;;19.30;53.80;;;;;;4981913;28;20544;-43
2022/05/05 12:17:31;;;;;;;11.53;6.83;;;19.30;53.10;;;;;;4981236;28;20913;-44
2022/05/05 12:20:05;;;;;;;9.20;6.50;;;19.30;53.40;;;;;;4981574;28;20501;-43
2022/05/05 12:22:38;;;;;;;10.20;7.80;;;19.30;53.50;;;;;;4977733;28;20982;-44
2022/05/05 12:25:15;;;;;;;11.90;6.90;;;19.30;53.30;;;;;;4977782;28;20466;-43
2022/05/05 12:28:01;;;;;;;9.10;6.60;;;19.40;53.90;;;;;;4983009;28;20623;-43
2022/05/05 12:30:36;;;;;;;10.17;7.83;;;19.40;55.10;;;;;;4983284;28;21056;-44
2022/05/05 12:33:05;;;;;;;12.47;7.90;;;19.50;55.20;;;;;;4979317;28;21029;-43
2022/05/05 12:35:38;;;;;;;17.20;8.27;;;19.50;53.80;;;;;;4977370;28;20457;-43
2022/05/05 12:38:07;;;;;;;11.80;8.00;;;19.50;54.00;;;;;;4976999;28;20497;-43
2022/05/05 12:40:35;;;;;;;12.23;7.50;;;19.50;53.50;;;;;;4972603;28;20474;-43
2022/05/05 12:43:09;;;;;;;8.73;7.70;;;19.50;53.10;;;;;;4982636;28;20470;-43
2022/05/05 12:45:37;;;;;;;11.13;8.30;;;19.60;52.70;;;;;;4980002;28;20493;-43
2022/05/05 12:48:06;;;;;;;14.57;8.50;;;19.60;52.80;;;;;;4974240;28;20489;-44
2022/05/05 12:50:46;;;;;;;12.13;7.80;;;19.70;52.00;;;;;;4977061;28;21062;-43
2022/05/05 13:01:35;;;;;;;9.87;8.47;;;20.10;51.90;;;;;;4980986;28;20474;-44
2022/05/05 13:04:09;;;;;;;9.70;7.50;;;20.10;51.60;;;;;;4982125;28;20913;-44
2022/05/05 13:06:38;;;;;;;9.13;7.27;;;20.10;50.90;;;;;;4975439;28;20885;-44
2022/05/05 13:09:09;;;;;;;13.97;8.70;;;20.10;51.80;;;;;;4978435;28;20464;-44
2022/05/05 13:11:37;;;;;;;15.30;7.97;;;20.20;52.00;;;;;;4956153;28;20545;-44
2022/05/05 13:14:05;;;;;;;12.43;7.77;;;20.10;51.90;;;;;;4977255;28;20552;-44
2022/05/05 13:16:32;;;;;;;11.43;9.20;;;20.00;51.60;;;;;;4975987;28;20474;-44
2022/05/05 13:19:01;;;;;;;10.00;8.40;;;20.00;51.30;;;;;;4982844;28;20478;-44
2022/05/05 13:21:29;;;;;;;14.43;8.80;;;19.90;50.50;;;;;;4987337;28;20461;-44
2022/05/05 13:23:56;;;;;;;10.73;8.40;;;19.70;50.20;;;;;;4979915;28;20533;-45
2022/05/05 13:26:23;;;;;;;15.80;7.97;;;19.70;50.20;;;;;;4982379;28;20496;-43
2022/05/05 13:28:50;;;;;;;9.03;7.57;;;19.70;51.40;;;;;;4984795;28;20584;-43
2022/05/05 13:31:17;;;;;;;10.20;7.13;;;19.70;51.60;;;;;;4980344;28;20489;-44
2022/05/05 13:33:44;;;;;;;11.90;7.50;;;19.70;52.80;;;;;;4964517;28;20499;-44
2022/05/05 13:36:11;;;;;;;8.47;7.00;;;19.70;51.30;;;;;;4982794;28;20544;-44
2022/05/05 13:38:38;;;;;;;12.70;8.63;;;19.70;50.80;;;;;;4980470;28;20836;-44